sensor_id;sensor_type;location;lat;lon;timestamp;P1;durP1;ratioP1;P2;durP2;ratioP2
5787;SDS011;2920;48.158;12.254;2023-07-24T00:00:14;14.18;;;5.38;;
5787;SDS011;2920;48.158;12.254;2023-07-24T00:02:39;16.40;;;5.95;;
5787;SDS011;2920;48.158;12.254;2023-07-24T00:05:05;18.25;;;5.78;;
5787;SDS011;2920;48.158;12.254;2023-07-24T00:07:30;12.40;;;6.90;;
5787;SDS011;2920;48.158;12.254;2023-07-24T00:09:56;11.95;;;6.28;;
5787;SDS011;2920;48.158;12.254;2023-07-24T00:12:21;17.58;;;5.03;;
5787;SDS011;2920;48.158;12.254;2023-07-24T00:14:47;25.48;;;5.85;;
5787;SDS011;2920;48.158;12.254;2023-07-24T00:17:12;13.07;;;6.03;;
5787;SDS011;2920;48.158;12.254;2023-07-24T00:19:38;11.60;;;5.72;;
5787;SDS011;2920;48.158;12.254;2023-07-24T00:22:03;14.25;;;6.07;;
5787;SDS011;2920;48.158;12.254;2023-07-24T00:24:29;13.80;;;5.60;;
5787;SDS011;2920;48.158;12.254;2023-07-24T00:26:55;15.77;;;6.55;;
5787;SDS011;2920;48.158;12.254;2023-07-24T00:29:21;12.88;;;5.88;;
5787;SDS011;2920;48.158;12.254;2023-07-24T00:31:46;16.42;;;6.10;;
5787;SDS011;2920;48.158;12.254;2023-07-24T00:34:11;14.35;;;5.57;;
5787;SDS011;2920;48.158;12.254;2023-07-24T00:36:37;11.48;;;5.38;;
5787;SDS011;2920;48.158;12.254;2023-07-24T00:39:02;14.73;;;6.00;;
5787;SDS011;2920;48.158;12.254;2023-07-24T00:41:27;10.45;;;5.22;;
5787;SDS011;2920;48.158;12.254;2023-07-24T00:43:53;15.32;;;5.82;;
5787;SDS011;2920;48.158;12.254;2023-07-24T00:46:18;11.70;;;5.60;;
5787;SDS011;2920;48.158;12.254;2023-07-24T00:48:43;10.88;;;5.28;;
5787;SDS011;2920;48.158;12.254;2023-07-24T00:51:09;11.02;;;6.07;;
5787;SDS011;2920;48.158;12.254;2023-07-24T00:53:34;13.90;;;5.85;;
5787;SDS011;2920;48.158;12.254;2023-07-24T00:56:00;12.32;;;6.20;;
5787;SDS011;2920;48.158;12.254;2023-07-24T00:58:25;13.98;;;6.28;;
5787;SDS011;2920;48.158;12.254;2023-07-24T01:00:51;13.27;;;6.10;;
5787;SDS011;2920;48.158;12.254;2023-07-24T01:03:16;24.83;;;6.18;;
5787;SDS011;2920;48.158;12.254;2023-07-24T01:05:42;12.13;;;6.35;;
5787;SDS011;2920;48.158;12.254;2023-07-24T01:08:07;14.77;;;6.07;;
5787;SDS011;2920;48.158;12.254;2023-07-24T01:10:33;15.68;;;6.38;;
5787;SDS011;2920;48.158;12.254;2023-07-24T01:12:59;9.77;;;5.65;;
5787;SDS011;2920;48.158;12.254;2023-07-24T01:20:25;12.05;;;5.63;;
5787;SDS011;2920;48.158;12.254;2023-07-24T01:22:57;11.20;;;5.55;;
5787;SDS011;2920;48.158;12.254;2023-07-24T01:25:33;10.73;;;5.63;;
5787;SDS011;2920;48.158;12.254;2023-07-24T01:28:06;11.68;;;5.85;;
5787;SDS011;2920;48.158;12.254;2023-07-24T01:30:32;9.95;;;5.93;;
5787;SDS011;2920;48.158;12.254;2023-07-24T01:32:57;12.65;;;5.55;;
5787;SDS011;2920;48.158;12.254;2023-07-24T01:35:22;10.65;;;6.03;;
5787;SDS011;2920;48.158;12.254;2023-07-24T01:37:48;11.57;;;5.38;;
5787;SDS011;2920;48.158;12.254;2023-07-24T01:40:14;10.88;;;5.53;;
5787;SDS011;2920;48.158;12.254;2023-07-24T01:42:40;14.13;;;6.13;;
5787;SDS011;2920;48.158;12.254;2023-07-24T01:45:05;12.77;;;6.03;;
5787;SDS011;2920;48.158;12.254;2023-07-24T01:47:31;10.32;;;5.43;;
5787;SDS011;2920;48.158;12.254;2023-07-24T01:49:57;12.32;;;6.07;;
5787;SDS011;2920;48.158;12.254;2023-07-24T01:52:22;16.60;;;6.35;;
5787;SDS011;2920;48.158;12.254;2023-07-24T01:54:47;12.88;;;6.00;;
5787;SDS011;2920;48.158;12.254;2023-07-24T01:57:13;12.80;;;5.50;;
5787;SDS011;2920;48.158;12.254;2023-07-24T01:59:38;11.32;;;5.32;;
5787;SDS011;2920;48.158;12.254;2023-07-24T02:02:04;9.48;;;5.40;;
5787;SDS011;2920;48.158;12.254;2023-07-24T02:04:29;8.93;;;5.68;;
5787;SDS011;2920;48.158;12.254;2023-07-24T02:06:54;10.70;;;5.72;;
5787;SDS011;2920;48.158;12.254;2023-07-24T02:09:20;13.77;;;5.65;;
5787;SDS011;2920;48.158;12.254;2023-07-24T02:11:45;12.63;;;6.07;;
5787;SDS011;2920;48.158;12.254;2023-07-24T02:14:11;12.45;;;5.88;;
5787;SDS011;2920;48.158;12.254;2023-07-24T02:16:37;9.80;;;5.50;;
5787;SDS011;2920;48.158;12.254;2023-07-24T02:19:03;10.68;;;5.68;;
5787;SDS011;2920;48.158;12.254;2023-07-24T02:21:28;9.65;;;5.25;;
5787;SDS011;2920;48.158;12.254;2023-07-24T02:23:54;11.55;;;5.80;;
5787;SDS011;2920;48.158;12.254;2023-07-24T02:26:19;12.13;;;6.10;;
5787;SDS011;2920;48.158;12.254;2023-07-24T02:28:44;9.75;;;5.47;;
5787;SDS011;2920;48.158;12.254;2023-07-24T02:31:10;11.70;;;5.88;;
5787;SDS011;2920;48.158;12.254;2023-07-24T02:33:35;14.77;;;5.72;;
5787;SDS011;2920;48.158;12.254;2023-07-24T02:36:00;10.15;;;5.00;;
5787;SDS011;2920;48.158;12.254;2023-07-24T02:38:26;13.73;;;6.13;;
5787;SDS011;2920;48.158;12.254;2023-07-24T02:40:51;10.43;;;5.38;;
5787;SDS011;2920;48.158;12.254;2023-07-24T02:43:16;12.43;;;5.15;;
5787;SDS011;2920;48.158;12.254;2023-07-24T02:45:42;13.05;;;7.07;;
5787;SDS011;2920;48.158;12.254;2023-07-24T02:48:07;13.20;;;6.50;;
5787;SDS011;2920;48.158;12.254;2023-07-24T02:50:32;10.73;;;6.40;;
5787;SDS011;2920;48.158;12.254;2023-07-24T02:52:58;10.23;;;5.85;;
5787;SDS011;2920;48.158;12.254;2023-07-24T02:55:23;11.13;;;5.32;;
5787;SDS011;2920;48.158;12.254;2023-07-24T02:57:49;12.50;;;6.43;;
5787;SDS011;2920;48.158;12.254;2023-07-24T03:00:14;10.43;;;5.65;;
5787;SDS011;2920;48.158;12.254;2023-07-24T03:02:40;10.85;;;5.53;;
5787;SDS011;2920;48.158;12.254;2023-07-24T03:05:05;10.40;;;5.47;;
5787;SDS011;2920;48.158;12.254;2023-07-24T03:07:31;12.77;;;6.22;;
5787;SDS011;2920;48.158;12.254;2023-07-24T03:09:57;10.30;;;5.30;;
5787;SDS011;2920;48.158;12.254;2023-07-24T03:12:22;14.23;;;5.60;;
5787;SDS011;2920;48.158;12.254;2023-07-24T03:14:48;14.38;;;6.13;;
5787;SDS011;2920;48.158;12.254;2023-07-24T03:17:13;11.63;;;5.90;;
5787;SDS011;2920;48.158;12.254;2023-07-24T03:19:39;10.43;;;5.95;;
5787;SDS011;2920;48.158;12.254;2023-07-24T03:22:05;12.10;;;6.47;;
5787;SDS011;2920;48.158;12.254;2023-07-24T03:24:30;11.43;;;5.60;;
5787;SDS011;2920;48.158;12.254;2023-07-24T03:26:56;10.07;;;5.18;;
5787;SDS011;2920;48.158;12.254;2023-07-24T03:29:21;8.93;;;5.30;;
5787;SDS011;2920;48.158;12.254;2023-07-24T03:31:46;9.52;;;5.32;;
5787;SDS011;2920;48.158;12.254;2023-07-24T03:34:12;10.00;;;5.60;;
5787;SDS011;2920;48.158;12.254;2023-07-24T03:36:37;12.23;;;6.13;;
5787;SDS011;2920;48.158;12.254;2023-07-24T03:39:06;10.98;;;5.43;;
5787;SDS011;2920;48.158;12.254;2023-07-24T03:41:31;10.30;;;5.47;;
5787;SDS011;2920;48.158;12.254;2023-07-24T03:43:56;10.25;;;5.63;;
5787;SDS011;2920;48.158;12.254;2023-07-24T03:46:22;10.88;;;5.85;;
5787;SDS011;2920;48.158;12.254;2023-07-24T03:48:47;12.57;;;6.18;;
5787;SDS011;2920;48.158;12.254;2023-07-24T03:51:14;20.25;;;6.80;;
5787;SDS011;2920;48.158;12.254;2023-07-24T03:53:40;16.00;;;6.95;;
5787;SDS011;2920;48.158;12.254;2023-07-24T03:56:05;17.77;;;6.47;;
5787;SDS011;2920;48.158;12.254;2023-07-24T03:58:30;14.00;;;6.82;;
5787;SDS011;2920;48.158;12.254;2023-07-24T04:00:56;12.18;;;6.22;;
5787;SDS011;2920;48.158;12.254;2023-07-24T04:03:21;11.98;;;6.32;;
5787;SDS011;2920;48.158;12.254;2023-07-24T04:05:46;12.95;;;6.38;;
5787;SDS011;2920;48.158;12.254;2023-07-24T04:08:12;12.88;;;6.85;;
5787;SDS011;2920;48.158;12.254;2023-07-24T04:10:37;12.48;;;6.70;;
5787;SDS011;2920;48.158;12.254;2023-07-24T04:13:02;13.10;;;6.88;;
5787;SDS011;2920;48.158;12.254;2023-07-24T04:15:27;11.80;;;6.28;;
5787;SDS011;2920;48.158;12.254;2023-07-24T04:17:53;15.23;;;7.15;;
5787;SDS011;2920;48.158;12.254;2023-07-24T04:20:18;16.42;;;7.30;;
5787;SDS011;2920;48.158;12.254;2023-07-24T04:22:43;11.93;;;7.15;;
5787;SDS011;2920;48.158;12.254;2023-07-24T04:25:09;13.13;;;6.97;;
5787;SDS011;2920;48.158;12.254;2023-07-24T04:27:34;14.20;;;7.25;;
5787;SDS011;2920;48.158;12.254;2023-07-24T04:29:59;13.02;;;7.20;;
5787;SDS011;2920;48.158;12.254;2023-07-24T04:32:27;13.48;;;7.00;;
5787;SDS011;2920;48.158;12.254;2023-07-24T04:34:53;16.20;;;6.85;;
5787;SDS011;2920;48.158;12.254;2023-07-24T04:37:18;13.50;;;6.95;;
5787;SDS011;2920;48.158;12.254;2023-07-24T04:39:44;14.93;;;6.82;;
5787;SDS011;2920;48.158;12.254;2023-07-24T04:42:09;13.23;;;7.28;;
5787;SDS011;2920;48.158;12.254;2023-07-24T04:44:34;11.65;;;6.53;;
5787;SDS011;2920;48.158;12.254;2023-07-24T04:47:00;14.90;;;6.50;;
5787;SDS011;2920;48.158;12.254;2023-07-24T04:49:28;13.60;;;6.80;;
5787;SDS011;2920;48.158;12.254;2023-07-24T04:51:54;13.65;;;6.78;;
5787;SDS011;2920;48.158;12.254;2023-07-24T04:54:19;16.80;;;7.88;;
5787;SDS011;2920;48.158;12.254;2023-07-24T04:56:44;16.50;;;6.85;;
5787;SDS011;2920;48.158;12.254;2023-07-24T04:59:10;11.30;;;7.00;;
5787;SDS011;2920;48.158;12.254;2023-07-24T05:01:35;13.73;;;7.88;;
5787;SDS011;2920;48.158;12.254;2023-07-24T05:04:00;14.25;;;6.85;;
5787;SDS011;2920;48.158;12.254;2023-07-24T05:06:26;12.27;;;6.30;;
5787;SDS011;2920;48.158;12.254;2023-07-24T05:08:52;14.18;;;6.80;;
5787;SDS011;2920;48.158;12.254;2023-07-24T05:11:17;16.45;;;7.40;;
5787;SDS011;2920;48.158;12.254;2023-07-24T05:13:42;11.05;;;6.32;;
5787;SDS011;2920;48.158;12.254;2023-07-24T05:16:08;16.65;;;7.70;;
5787;SDS011;2920;48.158;12.254;2023-07-24T05:18:33;15.60;;;7.30;;
5787;SDS011;2920;48.158;12.254;2023-07-24T05:20:58;12.65;;;7.55;;
5787;SDS011;2920;48.158;12.254;2023-07-24T05:23:24;12.15;;;6.38;;
5787;SDS011;2920;48.158;12.254;2023-07-24T05:25:59;12.52;;;6.72;;
5787;SDS011;2920;48.158;12.254;2023-07-24T05:28:28;11.25;;;6.60;;
5787;SDS011;2920;48.158;12.254;2023-07-24T05:30:54;12.30;;;6.63;;
5787;SDS011;2920;48.158;12.254;2023-07-24T05:33:19;14.60;;;7.38;;
5787;SDS011;2920;48.158;12.254;2023-07-24T05:35:44;12.38;;;6.68;;
5787;SDS011;2920;48.158;12.254;2023-07-24T05:38:10;14.27;;;7.53;;
5787;SDS011;2920;48.158;12.254;2023-07-24T05:40:35;11.85;;;6.60;;
5787;SDS011;2920;48.158;12.254;2023-07-24T05:43:00;11.40;;;7.22;;
5787;SDS011;2920;48.158;12.254;2023-07-24T05:45:26;12.20;;;6.47;;
5787;SDS011;2920;48.158;12.254;2023-07-24T05:47:52;10.90;;;6.47;;
5787;SDS011;2920;48.158;12.254;2023-07-24T05:50:17;14.13;;;6.90;;
5787;SDS011;2920;48.158;12.254;2023-07-24T05:52:42;13.10;;;7.05;;
5787;SDS011;2920;48.158;12.254;2023-07-24T05:55:08;14.55;;;7.05;;
5787;SDS011;2920;48.158;12.254;2023-07-24T05:57:33;12.80;;;7.25;;
5787;SDS011;2920;48.158;12.254;2023-07-24T05:59:59;12.45;;;6.80;;
5787;SDS011;2920;48.158;12.254;2023-07-24T06:02:24;11.50;;;6.28;;
5787;SDS011;2920;48.158;12.254;2023-07-24T06:04:49;14.60;;;6.68;;
5787;SDS011;2920;48.158;12.254;2023-07-24T06:07:14;12.27;;;7.07;;
5787;SDS011;2920;48.158;12.254;2023-07-24T06:09:40;13.85;;;6.97;;
5787;SDS011;2920;48.158;12.254;2023-07-24T06:12:05;15.57;;;6.82;;
5787;SDS011;2920;48.158;12.254;2023-07-24T06:14:31;12.02;;;6.40;;
5787;SDS011;2920;48.158;12.254;2023-07-24T06:16:56;11.10;;;6.68;;
5787;SDS011;2920;48.158;12.254;2023-07-24T06:19:21;13.18;;;6.88;;
5787;SDS011;2920;48.158;12.254;2023-07-24T06:21:46;13.90;;;7.28;;
5787;SDS011;2920;48.158;12.254;2023-07-24T06:24:12;12.27;;;6.25;;
5787;SDS011;2920;48.158;12.254;2023-07-24T06:26:38;11.10;;;6.60;;
5787;SDS011;2920;48.158;12.254;2023-07-24T06:29:04;10.60;;;6.50;;
5787;SDS011;2920;48.158;12.254;2023-07-24T06:31:29;12.35;;;6.85;;
5787;SDS011;2920;48.158;12.254;2023-07-24T06:33:54;11.98;;;6.60;;
5787;SDS011;2920;48.158;12.254;2023-07-24T06:36:20;13.68;;;6.22;;
5787;SDS011;2920;48.158;12.254;2023-07-24T06:38:45;14.73;;;7.53;;
5787;SDS011;2920;48.158;12.254;2023-07-24T06:41:12;11.48;;;6.95;;
5787;SDS011;2920;48.158;12.254;2023-07-24T06:43:37;11.85;;;6.85;;
5787;SDS011;2920;48.158;12.254;2023-07-24T06:46:04;11.40;;;6.95;;
5787;SDS011;2920;48.158;12.254;2023-07-24T06:48:29;12.15;;;6.82;;
5787;SDS011;2920;48.158;12.254;2023-07-24T06:50:54;12.77;;;7.05;;
5787;SDS011;2920;48.158;12.254;2023-07-24T06:53:20;10.57;;;6.22;;
5787;SDS011;2920;48.158;12.254;2023-07-24T06:55:45;11.65;;;6.47;;
5787;SDS011;2920;48.158;12.254;2023-07-24T06:58:10;13.23;;;7.68;;
5787;SDS011;2920;48.158;12.254;2023-07-24T07:00:35;14.07;;;7.10;;
5787;SDS011;2920;48.158;12.254;2023-07-24T07:03:01;11.85;;;6.53;;
5787;SDS011;2920;48.158;12.254;2023-07-24T07:05:26;11.18;;;6.97;;
5787;SDS011;2920;48.158;12.254;2023-07-24T07:07:52;13.32;;;7.03;;
5787;SDS011;2920;48.158;12.254;2023-07-24T07:10:17;12.40;;;7.00;;
5787;SDS011;2920;48.158;12.254;2023-07-24T07:12:42;13.05;;;6.63;;
5787;SDS011;2920;48.158;12.254;2023-07-24T07:15:07;12.35;;;6.88;;
5787;SDS011;2920;48.158;12.254;2023-07-24T07:17:33;11.27;;;6.75;;
5787;SDS011;2920;48.158;12.254;2023-07-24T07:19:58;13.23;;;7.53;;
5787;SDS011;2920;48.158;12.254;2023-07-24T07:22:24;10.48;;;6.22;;
5787;SDS011;2920;48.158;12.254;2023-07-24T07:24:49;11.95;;;6.90;;
5787;SDS011;2920;48.158;12.254;2023-07-24T07:27:14;11.40;;;6.45;;
5787;SDS011;2920;48.158;12.254;2023-07-24T07:29:42;10.35;;;6.00;;
5787;SDS011;2920;48.158;12.254;2023-07-24T07:32:08;9.95;;;6.43;;
5787;SDS011;2920;48.158;12.254;2023-07-24T07:34:33;12.88;;;6.88;;
5787;SDS011;2920;48.158;12.254;2023-07-24T07:37:00;12.65;;;6.72;;
5787;SDS011;2920;48.158;12.254;2023-07-24T07:39:26;10.68;;;6.30;;
5787;SDS011;2920;48.158;12.254;2023-07-24T07:41:51;11.48;;;6.88;;
5787;SDS011;2920;48.158;12.254;2023-07-24T07:44:16;12.18;;;6.95;;
5787;SDS011;2920;48.158;12.254;2023-07-24T07:46:42;10.07;;;6.45;;
5787;SDS011;2920;48.158;12.254;2023-07-24T07:49:07;10.13;;;6.78;;
5787;SDS011;2920;48.158;12.254;2023-07-24T07:51:32;12.05;;;7.50;;
5787;SDS011;2920;48.158;12.254;2023-07-24T07:53:58;12.13;;;6.32;;
5787;SDS011;2920;48.158;12.254;2023-07-24T07:56:23;11.15;;;6.93;;
5787;SDS011;2920;48.158;12.254;2023-07-24T07:58:48;10.02;;;7.18;;
5787;SDS011;2920;48.158;12.254;2023-07-24T08:01:14;14.60;;;6.63;;
5787;SDS011;2920;48.158;12.254;2023-07-24T08:03:39;18.90;;;8.20;;
5787;SDS011;2920;48.158;12.254;2023-07-24T08:06:04;16.70;;;7.38;;
5787;SDS011;2920;48.158;12.254;2023-07-24T08:08:31;12.77;;;6.38;;
5787;SDS011;2920;48.158;12.254;2023-07-24T08:10:56;11.32;;;7.32;;
5787;SDS011;2920;48.158;12.254;2023-07-24T08:13:21;11.82;;;6.82;;
5787;SDS011;2920;48.158;12.254;2023-07-24T08:15:47;15.90;;;7.20;;
5787;SDS011;2920;48.158;12.254;2023-07-24T08:18:12;11.93;;;7.13;;
5787;SDS011;2920;48.158;12.254;2023-07-24T08:20:37;11.73;;;7.85;;
5787;SDS011;2920;48.158;12.254;2023-07-24T08:23:05;13.15;;;7.97;;
5787;SDS011;2920;48.158;12.254;2023-07-24T08:25:30;13.52;;;7.63;;
5787;SDS011;2920;48.158;12.254;2023-07-24T08:27:55;12.65;;;7.93;;
5787;SDS011;2920;48.158;12.254;2023-07-24T08:30:21;12.80;;;7.25;;
5787;SDS011;2920;48.158;12.254;2023-07-24T08:32:46;10.43;;;6.43;;
5787;SDS011;2920;48.158;12.254;2023-07-24T08:35:12;12.23;;;7.60;;
5787;SDS011;2920;48.158;12.254;2023-07-24T08:37:37;15.02;;;7.75;;
5787;SDS011;2920;48.158;12.254;2023-07-24T08:40:02;14.38;;;7.28;;
5787;SDS011;2920;48.158;12.254;2023-07-24T08:42:28;12.65;;;6.95;;
5787;SDS011;2920;48.158;12.254;2023-07-24T08:44:53;12.38;;;7.00;;
5787;SDS011;2920;48.158;12.254;2023-07-24T08:47:19;9.52;;;5.95;;
5787;SDS011;2920;48.158;12.254;2023-07-24T08:49:45;11.25;;;6.32;;
5787;SDS011;2920;48.158;12.254;2023-07-24T08:52:11;13.07;;;7.00;;
5787;SDS011;2920;48.158;12.254;2023-07-24T08:54:37;13.23;;;7.60;;
5787;SDS011;2920;48.158;12.254;2023-07-24T08:57:04;13.77;;;7.18;;
5787;SDS011;2920;48.158;12.254;2023-07-24T08:59:31;12.45;;;7.05;;
5787;SDS011;2920;48.158;12.254;2023-07-24T09:01:56;11.05;;;5.90;;
5787;SDS011;2920;48.158;12.254;2023-07-24T09:04:22;10.35;;;5.85;;
5787;SDS011;2920;48.158;12.254;2023-07-24T09:06:47;9.10;;;5.80;;
5787;SDS011;2920;48.158;12.254;2023-07-24T09:09:14;11.98;;;6.28;;
5787;SDS011;2920;48.158;12.254;2023-07-24T09:11:49;16.40;;;6.75;;
5787;SDS011;2920;48.158;12.254;2023-07-24T09:14:25;8.93;;;5.57;;
5787;SDS011;2920;48.158;12.254;2023-07-24T09:17:01;9.60;;;5.53;;
5787;SDS011;2920;48.158;12.254;2023-07-24T09:19:33;9.73;;;6.32;;
5787;SDS011;2920;48.158;12.254;2023-07-24T09:22:09;12.88;;;5.22;;
5787;SDS011;2920;48.158;12.254;2023-07-24T09:24:35;8.93;;;5.68;;
5787;SDS011;2920;48.158;12.254;2023-07-24T09:27:00;8.82;;;5.13;;
5787;SDS011;2920;48.158;12.254;2023-07-24T09:29:30;6.57;;;4.70;;
5787;SDS011;2920;48.158;12.254;2023-07-24T09:31:56;11.10;;;5.45;;
5787;SDS011;2920;48.158;12.254;2023-07-24T09:34:22;8.45;;;5.80;;
5787;SDS011;2920;48.158;12.254;2023-07-24T09:36:47;8.65;;;4.65;;
5787;SDS011;2920;48.158;12.254;2023-07-24T09:39:12;7.95;;;5.30;;
5787;SDS011;2920;48.158;12.254;2023-07-24T09:41:40;8.88;;;5.15;;
5787;SDS011;2920;48.158;12.254;2023-07-24T09:44:06;8.95;;;5.15;;
5787;SDS011;2920;48.158;12.254;2023-07-24T09:46:33;9.30;;;4.97;;
5787;SDS011;2920;48.158;12.254;2023-07-24T09:48:59;7.75;;;5.25;;
5787;SDS011;2920;48.158;12.254;2023-07-24T09:51:24;16.27;;;5.30;;
5787;SDS011;2920;48.158;12.254;2023-07-24T09:53:55;7.38;;;4.65;;
5787;SDS011;2920;48.158;12.254;2023-07-24T09:56:23;9.45;;;5.47;;
5787;SDS011;2920;48.158;12.254;2023-07-24T09:58:49;8.35;;;4.72;;
5787;SDS011;2920;48.158;12.254;2023-07-24T10:01:19;9.63;;;5.43;;
5787;SDS011;2920;48.158;12.254;2023-07-24T10:03:45;7.55;;;4.70;;
5787;SDS011;2920;48.158;12.254;2023-07-24T10:06:12;8.88;;;4.65;;
5787;SDS011;2920;48.158;12.254;2023-07-24T10:08:40;8.60;;;5.57;;
5787;SDS011;2920;48.158;12.254;2023-07-24T10:11:06;9.20;;;5.93;;
5787;SDS011;2920;48.158;12.254;2023-07-24T10:13:32;8.70;;;5.47;;
5787;SDS011;2920;48.158;12.254;2023-07-24T10:16:01;9.07;;;5.43;;
5787;SDS011;2920;48.158;12.254;2023-07-24T10:18:28;7.90;;;5.10;;
5787;SDS011;2920;48.158;12.254;2023-07-24T10:21:01;11.18;;;6.25;;
5787;SDS011;2920;48.158;12.254;2023-07-24T10:23:27;7.90;;;5.60;;
5787;SDS011;2920;48.158;12.254;2023-07-24T10:25:53;7.55;;;5.25;;
5787;SDS011;2920;48.158;12.254;2023-07-24T10:28:18;7.07;;;5.10;;
5787;SDS011;2920;48.158;12.254;2023-07-24T10:30:44;8.55;;;5.60;;
5787;SDS011;2920;48.158;12.254;2023-07-24T10:35:36;8.75;;;5.88;;
5787;SDS011;2920;48.158;12.254;2023-07-24T10:38:05;7.43;;;5.60;;
5787;SDS011;2920;48.158;12.254;2023-07-24T10:40:32;8.57;;;5.70;;
5787;SDS011;2920;48.158;12.254;2023-07-24T10:42:58;8.85;;;5.85;;
5787;SDS011;2920;48.158;12.254;2023-07-24T10:45:51;9.27;;;5.78;;
5787;SDS011;2920;48.158;12.254;2023-07-24T10:48:18;8.35;;;5.60;;
5787;SDS011;2920;48.158;12.254;2023-07-24T10:50:44;24.27;;;7.32;;
5787;SDS011;2920;48.158;12.254;2023-07-24T10:53:11;13.52;;;6.18;;
5787;SDS011;2920;48.158;12.254;2023-07-24T10:55:38;12.48;;;6.50;;
5787;SDS011;2920;48.158;12.254;2023-07-24T10:58:03;11.25;;;6.45;;
5787;SDS011;2920;48.158;12.254;2023-07-24T11:00:28;12.98;;;7.43;;
5787;SDS011;2920;48.158;12.254;2023-07-24T11:02:54;11.73;;;6.93;;
5787;SDS011;2920;48.158;12.254;2023-07-24T11:05:20;10.00;;;6.38;;
5787;SDS011;2920;48.158;12.254;2023-07-24T11:07:46;8.70;;;6.18;;
5787;SDS011;2920;48.158;12.254;2023-07-24T11:10:15;10.82;;;6.82;;
5787;SDS011;2920;48.158;12.254;2023-07-24T11:12:45;9.70;;;6.88;;
5787;SDS011;2920;48.158;12.254;2023-07-24T11:15:11;10.00;;;6.40;;
5787;SDS011;2920;48.158;12.254;2023-07-24T11:17:38;9.95;;;6.43;;
5787;SDS011;2920;48.158;12.254;2023-07-24T11:22:33;12.32;;;6.00;;
5787;SDS011;2920;48.158;12.254;2023-07-24T11:24:58;10.18;;;6.65;;
5787;SDS011;2920;48.158;12.254;2023-07-24T11:27:24;10.52;;;6.10;;
5787;SDS011;2920;48.158;12.254;2023-07-24T11:29:50;12.30;;;6.57;;
5787;SDS011;2920;48.158;12.254;2023-07-24T11:32:18;10.90;;;6.15;;
5787;SDS011;2920;48.158;12.254;2023-07-24T11:34:45;9.75;;;6.20;;
5787;SDS011;2920;48.158;12.254;2023-07-24T11:37:11;9.45;;;5.85;;
5787;SDS011;2920;48.158;12.254;2023-07-24T11:39:37;8.15;;;5.97;;
5787;SDS011;2920;48.158;12.254;2023-07-24T11:42:02;8.90;;;6.63;;
5787;SDS011;2920;48.158;12.254;2023-07-24T11:44:27;10.10;;;7.15;;
5787;SDS011;2920;48.158;12.254;2023-07-24T11:47:00;10.93;;;6.28;;
5787;SDS011;2920;48.158;12.254;2023-07-24T11:49:29;10.55;;;6.05;;
5787;SDS011;2920;48.158;12.254;2023-07-24T11:52:01;8.65;;;5.43;;
5787;SDS011;2920;48.158;12.254;2023-07-24T11:54:28;7.90;;;5.85;;
5787;SDS011;2920;48.158;12.254;2023-07-24T11:56:53;9.82;;;6.20;;
5787;SDS011;2920;48.158;12.254;2023-07-24T11:59:19;7.82;;;6.05;;
5787;SDS011;2920;48.158;12.254;2023-07-24T12:01:47;10.38;;;6.30;;
5787;SDS011;2920;48.158;12.254;2023-07-24T12:04:14;8.15;;;5.78;;
5787;SDS011;2920;48.158;12.254;2023-07-24T12:06:40;8.23;;;6.13;;
5787;SDS011;2920;48.158;12.254;2023-07-24T12:09:06;8.63;;;6.63;;
5787;SDS011;2920;48.158;12.254;2023-07-24T12:11:31;8.65;;;6.22;;
5787;SDS011;2920;48.158;12.254;2023-07-24T12:13:57;8.55;;;6.30;;
5787;SDS011;2920;48.158;12.254;2023-07-24T12:16:23;14.07;;;6.30;;
5787;SDS011;2920;48.158;12.254;2023-07-24T12:18:48;8.35;;;5.68;;
5787;SDS011;2920;48.158;12.254;2023-07-24T12:21:13;8.90;;;5.80;;
5787;SDS011;2920;48.158;12.254;2023-07-24T12:23:38;8.27;;;5.40;;
5787;SDS011;2920;48.158;12.254;2023-07-24T12:26:04;9.00;;;6.25;;
5787;SDS011;2920;48.158;12.254;2023-07-24T12:28:29;10.48;;;6.35;;
5787;SDS011;2920;48.158;12.254;2023-07-24T12:30:55;11.02;;;6.40;;
5787;SDS011;2920;48.158;12.254;2023-07-24T12:33:20;9.75;;;6.40;;
5787;SDS011;2920;48.158;12.254;2023-07-24T12:35:48;8.35;;;6.13;;
5787;SDS011;2920;48.158;12.254;2023-07-24T12:38:14;10.15;;;5.72;;
5787;SDS011;2920;48.158;12.254;2023-07-24T12:40:39;7.77;;;5.50;;
5787;SDS011;2920;48.158;12.254;2023-07-24T12:43:05;8.87;;;5.33;;
5787;SDS011;2920;48.158;12.254;2023-07-24T12:45:30;11.87;;;6.33;;
5787;SDS011;2920;48.158;12.254;2023-07-24T12:47:55;6.10;;;4.65;;
5787;SDS011;2920;48.158;12.254;2023-07-24T12:50:21;11.13;;;6.10;;
5787;SDS011;2920;48.158;12.254;2023-07-24T12:52:48;9.82;;;6.40;;
5787;SDS011;2920;48.158;12.254;2023-07-24T12:55:13;10.63;;;5.88;;
5787;SDS011;2920;48.158;12.254;2023-07-24T12:57:39;9.13;;;6.07;;
5787;SDS011;2920;48.158;12.254;2023-07-24T13:00:04;11.32;;;5.82;;
5787;SDS011;2920;48.158;12.254;2023-07-24T13:02:30;10.32;;;6.13;;
5787;SDS011;2920;48.158;12.254;2023-07-24T13:04:57;11.73;;;5.15;;
5787;SDS011;2920;48.158;12.254;2023-07-24T13:07:22;9.10;;;5.30;;
5787;SDS011;2920;48.158;12.254;2023-07-24T13:09:47;10.18;;;5.65;;
5787;SDS011;2920;48.158;12.254;2023-07-24T13:12:12;9.38;;;5.00;;
5787;SDS011;2920;48.158;12.254;2023-07-24T13:14:38;6.78;;;4.15;;
5787;SDS011;2920;48.158;12.254;2023-07-24T13:17:03;8.35;;;5.20;;
5787;SDS011;2920;48.158;12.254;2023-07-24T13:19:29;8.75;;;4.60;;
5787;SDS011;2920;48.158;12.254;2023-07-24T13:21:54;8.43;;;4.60;;
5787;SDS011;2920;48.158;12.254;2023-07-24T13:24:19;16.20;;;4.82;;
5787;SDS011;2920;48.158;12.254;2023-07-24T13:26:45;6.25;;;4.20;;
5787;SDS011;2920;48.158;12.254;2023-07-24T13:29:10;12.00;;;4.95;;
5787;SDS011;2920;48.158;12.254;2023-07-24T13:31:35;9.18;;;4.85;;
5787;SDS011;2920;48.158;12.254;2023-07-24T13:34:01;7.38;;;4.32;;
5787;SDS011;2920;48.158;12.254;2023-07-24T13:36:27;8.32;;;4.68;;
5787;SDS011;2920;48.158;12.254;2023-07-24T13:38:52;8.40;;;4.53;;
5787;SDS011;2920;48.158;12.254;2023-07-24T13:41:18;6.72;;;4.63;;
5787;SDS011;2920;48.158;12.254;2023-07-24T13:43:43;7.18;;;4.00;;
5787;SDS011;2920;48.158;12.254;2023-07-24T13:46:08;12.43;;;4.45;;
5787;SDS011;2920;48.158;12.254;2023-07-24T13:48:34;6.85;;;4.45;;
5787;SDS011;2920;48.158;12.254;2023-07-24T13:50:59;7.70;;;4.60;;
5787;SDS011;2920;48.158;12.254;2023-07-24T13:53:24;9.32;;;5.25;;
5787;SDS011;2920;48.158;12.254;2023-07-24T13:55:50;8.73;;;4.45;;
5787;SDS011;2920;48.158;12.254;2023-07-24T13:58:16;7.45;;;4.47;;
5787;SDS011;2920;48.158;12.254;2023-07-24T14:00:41;8.20;;;4.65;;
5787;SDS011;2920;48.158;12.254;2023-07-24T14:03:06;6.28;;;4.07;;
5787;SDS011;2920;48.158;12.254;2023-07-24T14:05:32;9.48;;;4.30;;
5787;SDS011;2920;48.158;12.254;2023-07-24T14:07:58;5.88;;;4.03;;
5787;SDS011;2920;48.158;12.254;2023-07-24T14:10:23;7.20;;;3.85;;
5787;SDS011;2920;48.158;12.254;2023-07-24T14:12:49;6.25;;;3.75;;
5787;SDS011;2920;48.158;12.254;2023-07-24T14:15:14;8.38;;;4.30;;
5787;SDS011;2920;48.158;12.254;2023-07-24T14:17:39;4.32;;;3.15;;
5787;SDS011;2920;48.158;12.254;2023-07-24T14:20:05;5.97;;;3.33;;
5787;SDS011;2920;48.158;12.254;2023-07-24T14:22:31;5.35;;;3.35;;
5787;SDS011;2920;48.158;12.254;2023-07-24T14:24:56;6.65;;;3.58;;
5787;SDS011;2920;48.158;12.254;2023-07-24T14:27:21;5.40;;;2.97;;
5787;SDS011;2920;48.158;12.254;2023-07-24T14:29:47;7.20;;;4.35;;
5787;SDS011;2920;48.158;12.254;2023-07-24T14:32:12;6.20;;;3.55;;
5787;SDS011;2920;48.158;12.254;2023-07-24T14:34:37;4.90;;;2.75;;
5787;SDS011;2920;48.158;12.254;2023-07-24T14:37:03;5.63;;;3.65;;
5787;SDS011;2920;48.158;12.254;2023-07-24T14:39:28;5.07;;;3.25;;
5787;SDS011;2920;48.158;12.254;2023-07-24T14:41:54;6.10;;;3.10;;
5787;SDS011;2920;48.158;12.254;2023-07-24T14:44:19;5.57;;;3.15;;
5787;SDS011;2920;48.158;12.254;2023-07-24T14:46:45;6.43;;;3.63;;
5787;SDS011;2920;48.158;12.254;2023-07-24T14:49:10;3.78;;;2.80;;
5787;SDS011;2920;48.158;12.254;2023-07-24T14:51:35;5.65;;;3.40;;
5787;SDS011;2920;48.158;12.254;2023-07-24T14:54:01;6.30;;;3.58;;